sensor_id;sensor_type;location;lat;lon;timestamp;temperature;humidity
22006;DHT22;11167;46.988;15.470;2022-07-23T00:01:05;27.10;59.20
22006;DHT22;11167;46.988;15.470;2022-07-23T00:03:07;27.10;59.10
22006;DHT22;11167;46.988;15.470;2022-07-23T00:05:09;27.10;59.20
22006;DHT22;11167;46.988;15.470;2022-07-23T00:07:10;27.00;59.80
22006;DHT22;11167;46.988;15.470;2022-07-23T00:09:12;27.00;59.10
22006;DHT22;11167;46.988;15.470;2022-07-23T00:11:13;27.00;59.10
22006;DHT22;11167;46.988;15.470;2022-07-23T00:13:14;27.00;59.20
22006;DHT22;11167;46.988;15.470;2022-07-23T00:15:35;27.00;59.20
22006;DHT22;11167;46.988;15.470;2022-07-23T00:17:36;25.50;58.20
22006;DHT22;11167;46.988;15.470;2022-07-23T00:19:38;27.70;59.60
22006;DHT22;11167;46.988;15.470;2022-07-23T00:21:39;26.80;59.10
22006;DHT22;11167;46.988;15.470;2022-07-23T00:23:40;26.80;59.10
22006;DHT22;11167;46.988;15.470;2022-07-23T00:25:42;26.80;59.10
22006;DHT22;11167;46.988;15.470;2022-07-23T00:27:44;26.80;59.10
22006;DHT22;11167;46.988;15.470;2022-07-23T00:29:45;26.70;59.10
22006;DHT22;11167;46.988;15.470;2022-07-23T00:31:46;26.70;59.10
22006;DHT22;11167;46.988;15.470;2022-07-23T00:33:47;26.70;59.10
22006;DHT22;11167;46.988;15.470;2022-07-23T00:35:49;26.60;59.10
22006;DHT22;11167;46.988;15.470;2022-07-23T00:37:50;26.60;59.10
22006;DHT22;11167;46.988;15.470;2022-07-23T00:39:52;26.60;59.50
22006;DHT22;11167;46.988;15.470;2022-07-23T00:41:53;26.50;59.10
22006;DHT22;11167;46.988;15.470;2022-07-23T00:43:55;26.50;59.10
22006;DHT22;11167;46.988;15.470;2022-07-23T00:45:57;26.50;59.20
22006;DHT22;11167;46.988;15.470;2022-07-23T00:47:59;25.40;58.40
22006;DHT22;11167;46.988;15.470;2022-07-23T00:50:00;26.50;59.20
22006;DHT22;11167;46.988;15.470;2022-07-23T00:52:02;26.90;59.40
22006;DHT22;11167;46.988;15.470;2022-07-23T00:54:04;26.40;59.10
22006;DHT22;11167;46.988;15.470;2022-07-23T00:56:05;26.30;59.10
22006;DHT22;11167;46.988;15.470;2022-07-23T00:58:08;26.30;59.20
22006;DHT22;11167;46.988;15.470;2022-07-23T01:00:12;26.30;59.10
22006;DHT22;11167;46.988;15.470;2022-07-23T01:02:13;26.30;59.10
22006;DHT22;11167;46.988;15.470;2022-07-23T01:04:15;26.20;59.10
22006;DHT22;11167;46.988;15.470;2022-07-23T01:06:17;26.20;59.20
22006;DHT22;11167;46.988;15.470;2022-07-23T01:08:18;26.10;59.10
22006;DHT22;11167;46.988;15.470;2022-07-23T01:10:19;26.10;59.10
22006;DHT22;11167;46.988;15.470;2022-07-23T01:12:33;26.10;59.10
22006;DHT22;11167;46.988;15.470;2022-07-23T01:14:34;26.10;59.10
22006;DHT22;11167;46.988;15.470;2022-07-23T01:16:35;26.10;59.20
22006;DHT22;11167;46.988;15.470;2022-07-23T01:18:36;26.00;59.10
22006;DHT22;11167;46.988;15.470;2022-07-23T01:20:38;26.00;59.10
22006;DHT22;11167;46.988;15.470;2022-07-23T01:22:39;26.00;59.10
22006;DHT22;11167;46.988;15.470;2022-07-23T01:24:40;26.00;59.20
22006;DHT22;11167;46.988;15.470;2022-07-23T01:26:44;25.90;59.10
22006;DHT22;11167;46.988;15.470;2022-07-23T01:28:45;25.90;59.10
22006;DHT22;11167;46.988;15.470;2022-07-23T01:30:47;25.90;59.10
22006;DHT22;11167;46.988;15.470;2022-07-23T01:32:48;25.80;59.10
22006;DHT22;11167;46.988;15.470;2022-07-23T01:34:49;25.80;59.10
22006;DHT22;11167;46.988;15.470;2022-07-23T01:36:50;25.80;59.10
22006;DHT22;11167;46.988;15.470;2022-07-23T01:38:52;25.80;59.10
22006;DHT22;11167;46.988;15.470;2022-07-23T01:40:53;25.80;59.20
22006;DHT22;11167;46.988;15.470;2022-07-23T01:42:54;25.80;59.20
22006;DHT22;11167;46.988;15.470;2022-07-23T01:44:55;25.70;59.10
22006;DHT22;11167;46.988;15.470;2022-07-23T01:46:57;25.70;59.10
22006;DHT22;11167;46.988;15.470;2022-07-23T01:48:58;25.70;59.20
22006;DHT22;11167;46.988;15.470;2022-07-23T01:50:59;25.60;59.20
22006;DHT22;11167;46.988;15.470;2022-07-23T01:53:20;25.60;59.10
22006;DHT22;11167;46.988;15.470;2022-07-23T01:55:21;25.30;59.00
22006;DHT22;11167;46.988;15.470;2022-07-23T01:57:22;25.50;59.20
22006;DHT22;11167;46.988;15.470;2022-07-23T01:59:23;25.50;59.20
22006;DHT22;11167;46.988;15.470;2022-07-23T02:01:25;25.50;59.10
22006;DHT22;11167;46.988;15.470;2022-07-23T02:03:27;25.50;59.20
22006;DHT22;11167;46.988;15.470;2022-07-23T02:05:29;25.50;59.30
22006;DHT22;11167;46.988;15.470;2022-07-23T02:07:31;25.40;59.10
22006;DHT22;11167;46.988;15.470;2022-07-23T02:09:32;25.40;59.80
22006;DHT22;11167;46.988;15.470;2022-07-23T02:11:33;25.40;59.20
22006;DHT22;11167;46.988;15.470;2022-07-23T02:13:35;25.30;59.20
22006;DHT22;11167;46.988;15.470;2022-07-23T02:15:36;25.30;59.20
22006;DHT22;11167;46.988;15.470;2022-07-23T02:17:37;25.30;59.30
22006;DHT22;11167;46.988;15.470;2022-07-23T02:19:38;25.30;59.20
22006;DHT22;11167;46.988;15.470;2022-07-23T02:21:40;25.30;59.40
22006;DHT22;11167;46.988;15.470;2022-07-23T02:23:42;25.30;59.20
22006;DHT22;11167;46.988;15.470;2022-07-23T02:25:43;25.20;59.20
22006;DHT22;11167;46.988;15.470;2022-07-23T02:27:44;25.20;60.00
22006;DHT22;11167;46.988;15.470;2022-07-23T02:29:47;25.20;59.20
22006;DHT22;11167;46.988;15.470;2022-07-23T02:31:48;25.20;59.20
22006;DHT22;11167;46.988;15.470;2022-07-23T02:33:50;25.10;59.30
22006;DHT22;11167;46.988;15.470;2022-07-23T02:35:51;25.10;59.70
22006;DHT22;11167;46.988;15.470;2022-07-23T02:37:52;25.10;59.30
22006;DHT22;11167;46.988;15.470;2022-07-23T02:39:53;25.00;59.20
22006;DHT22;11167;46.988;15.470;2022-07-23T02:41:54;25.00;59.30
22006;DHT22;11167;46.988;15.470;2022-07-23T02:43:55;25.00;59.30
22006;DHT22;11167;46.988;15.470;2022-07-23T02:45:57;25.00;59.40
22006;DHT22;11167;46.988;15.470;2022-07-23T02:47:58;25.00;59.30
22006;DHT22;11167;46.988;15.470;2022-07-23T02:49:59;25.00;59.30
22006;DHT22;11167;46.988;15.470;2022-07-23T02:52:20;25.00;59.30
22006;DHT22;11167;46.988;15.470;2022-07-23T02:54:22;24.90;59.30
22006;DHT22;11167;46.988;15.470;2022-07-23T02:56:23;24.90;59.40
22006;DHT22;11167;46.988;15.470;2022-07-23T02:58:24;24.90;59.40
22006;DHT22;11167;46.988;15.470;2022-07-23T03:00:27;24.90;59.40
22006;DHT22;11167;46.988;15.470;2022-07-23T03:02:28;24.80;59.40
22006;DHT22;11167;46.988;15.470;2022-07-23T03:04:29;24.80;59.50
22006;DHT22;11167;46.988;15.470;2022-07-23T03:06:30;24.80;59.50
22006;DHT22;11167;46.988;15.470;2022-07-23T03:08:32;24.80;59.40
22006;DHT22;11167;46.988;15.470;2022-07-23T03:10:33;24.80;59.40
22006;DHT22;11167;46.988;15.470;2022-07-23T03:12:34;24.80;59.50
22006;DHT22;11167;46.988;15.470;2022-07-23T03:14:36;24.70;59.50
22006;DHT22;11167;46.988;15.470;2022-07-23T03:16:37;24.70;59.40
22006;DHT22;11167;46.988;15.470;2022-07-23T03:18:38;24.70;59.50
22006;DHT22;11167;46.988;15.470;2022-07-23T03:20:39;24.70;59.50
22006;DHT22;11167;46.988;15.470;2022-07-23T03:22:40;24.70;59.60
22006;DHT22;11167;46.988;15.470;2022-07-23T03:24:41;24.60;59.50
22006;DHT22;11167;46.988;15.470;2022-07-23T03:26:54;24.60;59.50
22006;DHT22;11167;46.988;15.470;2022-07-23T03:28:56;24.60;59.60
22006;DHT22;11167;46.988;15.470;2022-07-23T03:30:57;24.50;59.60
22006;DHT22;11167;46.988;15.470;2022-07-23T03:32:58;24.50;59.50
22006;DHT22;11167;46.988;15.470;2022-07-23T03:34:59;24.50;59.50
22006;DHT22;11167;46.988;15.470;2022-07-23T03:37:05;24.50;59.60
22006;DHT22;11167;46.988;15.470;2022-07-23T03:39:09;24.00;59.40
22006;DHT22;11167;46.988;15.470;2022-07-23T03:41:10;23.70;59.20
22006;DHT22;11167;46.988;15.470;2022-07-23T03:43:12;24.40;59.50
22006;DHT22;11167;46.988;15.470;2022-07-23T03:45:13;24.40;59.60
22006;DHT22;11167;46.988;15.470;2022-07-23T03:47:15;24.40;59.60
22006;DHT22;11167;46.988;15.470;2022-07-23T03:49:20;24.40;59.60
22006;DHT22;11167;46.988;15.470;2022-07-23T03:51:21;24.30;59.60
22006;DHT22;11167;46.988;15.470;2022-07-23T03:53:23;24.40;59.70
22006;DHT22;11167;46.988;15.470;2022-07-23T03:55:24;24.30;59.70
22006;DHT22;11167;46.988;15.470;2022-07-23T03:57:25;24.30;59.60
22006;DHT22;11167;46.988;15.470;2022-07-23T03:59:26;24.30;59.60
22006;DHT22;11167;46.988;15.470;2022-07-23T04:01:27;24.20;59.70
22006;DHT22;11167;46.988;15.470;2022-07-23T04:03:29;24.20;59.60
22006;DHT22;11167;46.988;15.470;2022-07-23T04:05:30;24.20;59.60
22006;DHT22;11167;46.988;15.470;2022-07-23T04:07:31;24.20;59.60
22006;DHT22;11167;46.988;15.470;2022-07-23T04:09:32;24.20;59.80
22006;DHT22;11167;46.988;15.470;2022-07-23T04:11:34;24.20;59.70
22006;DHT22;11167;46.988;15.470;2022-07-23T04:13:35;24.10;59.60
22006;DHT22;11167;46.988;15.470;2022-07-23T04:15:36;24.10;59.70
22006;DHT22;11167;46.988;15.470;2022-07-23T04:17:38;24.10;59.70
22006;DHT22;11167;46.988;15.470;2022-07-23T04:19:39;24.10;59.70
22006;DHT22;11167;46.988;15.470;2022-07-23T04:21:42;24.10;59.70
22006;DHT22;11167;46.988;15.470;2022-07-23T04:23:43;24.10;59.70
22006;DHT22;11167;46.988;15.470;2022-07-23T04:25:44;24.00;59.70
22006;DHT22;11167;46.988;15.470;2022-07-23T04:27:46;24.00;59.70
22006;DHT22;11167;46.988;15.470;2022-07-23T04:29:47;24.00;59.80
22006;DHT22;11167;46.988;15.470;2022-07-23T04:31:48;24.00;59.80
22006;DHT22;11167;46.988;15.470;2022-07-23T04:33:49;24.00;59.80
22006;DHT22;11167;46.988;15.470;2022-07-23T04:35:53;23.90;59.80
22006;DHT22;11167;46.988;15.470;2022-07-23T04:37:54;23.90;59.80
22006;DHT22;11167;46.988;15.470;2022-07-23T04:39:55;23.90;59.80
22006;DHT22;11167;46.988;15.470;2022-07-23T04:41:56;23.90;59.80
22006;DHT22;11167;46.988;15.470;2022-07-23T04:43:57;23.90;59.90
22006;DHT22;11167;46.988;15.470;2022-07-23T04:45:58;23.90;59.90
22006;DHT22;11167;46.988;15.470;2022-07-23T04:47:59;23.80;59.80
22006;DHT22;11167;46.988;15.470;2022-07-23T04:50:01;23.90;59.90
22006;DHT22;11167;46.988;15.470;2022-07-23T04:52:03;23.80;59.80
22006;DHT22;11167;46.988;15.470;2022-07-23T04:54:04;23.80;59.80
22006;DHT22;11167;46.988;15.470;2022-07-23T04:56:06;23.80;59.80
22006;DHT22;11167;46.988;15.470;2022-07-23T04:58:07;23.80;59.90
22006;DHT22;11167;46.988;15.470;2022-07-23T05:00:09;23.80;59.90
22006;DHT22;11167;46.988;15.470;2022-07-23T05:02:10;23.80;60.00
22006;DHT22;11167;46.988;15.470;2022-07-23T05:04:12;23.70;59.90
22006;DHT22;11167;46.988;15.470;2022-07-23T05:06:13;23.80;60.00
22006;DHT22;11167;46.988;15.470;2022-07-23T05:08:14;23.70;59.90
22006;DHT22;11167;46.988;15.470;2022-07-23T05:10:15;23.70;60.00
22006;DHT22;11167;46.988;15.470;2022-07-23T05:12:16;23.70;60.10
22006;DHT22;11167;46.988;15.470;2022-07-23T05:14:17;23.70;60.00
22006;DHT22;11167;46.988;15.470;2022-07-23T05:16:18;23.70;60.00
22006;DHT22;11167;46.988;15.470;2022-07-23T05:18:20;23.70;60.00
22006;DHT22;11167;46.988;15.470;2022-07-23T05:20:21;23.60;60.00
22006;DHT22;11167;46.988;15.470;2022-07-23T05:22:22;23.70;60.00
22006;DHT22;11167;46.988;15.470;2022-07-23T05:24:24;23.70;60.10
22006;DHT22;11167;46.988;15.470;2022-07-23T05:26:25;23.60;60.10
22006;DHT22;11167;46.988;15.470;2022-07-23T05:28:26;23.60;60.00
22006;DHT22;11167;46.988;15.470;2022-07-23T05:30:27;23.60;60.10
22006;DHT22;11167;46.988;15.470;2022-07-23T05:32:31;23.60;60.10
22006;DHT22;11167;46.988;15.470;2022-07-23T05:34:32;23.60;60.10
22006;DHT22;11167;46.988;15.470;2022-07-23T05:36:33;23.60;60.10
22006;DHT22;11167;46.988;15.470;2022-07-23T05:38:35;23.60;60.10
22006;DHT22;11167;46.988;15.470;2022-07-23T05:40:36;23.60;60.20
22006;DHT22;11167;46.988;15.470;2022-07-23T05:42:38;23.60;60.10
22006;DHT22;11167;46.988;15.470;2022-07-23T05:44:40;23.60;60.30
22006;DHT22;11167;46.988;15.470;2022-07-23T05:46:41;23.60;60.10
22006;DHT22;11167;46.988;15.470;2022-07-23T05:48:42;23.50;60.10
22006;DHT22;11167;46.988;15.470;2022-07-23T05:50:43;23.50;60.10
22006;DHT22;11167;46.988;15.470;2022-07-23T05:52:45;23.60;60.10
22006;DHT22;11167;46.988;15.470;2022-07-23T05:54:46;23.50;60.10
22006;DHT22;11167;46.988;15.470;2022-07-23T05:56:47;23.60;60.20
22006;DHT22;11167;46.988;15.470;2022-07-23T05:58:48;23.50;60.20
22006;DHT22;11167;46.988;15.470;2022-07-23T06:00:49;23.50;60.10
22006;DHT22;11167;46.988;15.470;2022-07-23T06:02:50;23.50;60.10
22006;DHT22;11167;46.988;15.470;2022-07-23T06:04:52;23.50;60.10
22006;DHT22;11167;46.988;15.470;2022-07-23T06:06:53;23.60;61.00
22006;DHT22;11167;46.988;15.470;2022-07-23T06:08:54;23.50;60.10
22006;DHT22;11167;46.988;15.470;2022-07-23T06:10:55;23.50;60.10
22006;DHT22;11167;46.988;15.470;2022-07-23T06:12:56;23.50;60.10
22006;DHT22;11167;46.988;15.470;2022-07-23T06:14:58;23.50;60.10
22006;DHT22;11167;46.988;15.470;2022-07-23T06:16:59;23.60;60.20
22006;DHT22;11167;46.988;15.470;2022-07-23T06:19:00;23.60;60.30
22006;DHT22;11167;46.988;15.470;2022-07-23T06:21:01;23.50;60.20
22006;DHT22;11167;46.988;15.470;2022-07-23T06:23:03;23.50;61.00
22006;DHT22;11167;46.988;15.470;2022-07-23T06:25:06;23.50;60.30
22006;DHT22;11167;46.988;15.470;2022-07-23T06:27:07;23.50;60.20
22006;DHT22;11167;46.988;15.470;2022-07-23T06:29:08;23.50;60.20
22006;DHT22;11167;46.988;15.470;2022-07-23T06:31:15;23.50;60.20
22006;DHT22;11167;46.988;15.470;2022-07-23T06:33:16;23.60;60.30
22006;DHT22;11167;46.988;15.470;2022-07-23T06:35:17;23.60;60.30
22006;DHT22;11167;46.988;15.470;2022-07-23T06:37:19;23.60;60.50
22006;DHT22;11167;46.988;15.470;2022-07-23T06:39:20;23.60;60.30
22006;DHT22;11167;46.988;15.470;2022-07-23T06:41:21;23.60;60.30
22006;DHT22;11167;46.988;15.470;2022-07-23T06:43:23;23.60;60.40
22006;DHT22;11167;46.988;15.470;2022-07-23T06:45:24;23.60;60.30
22006;DHT22;11167;46.988;15.470;2022-07-23T06:47:26;23.60;60.40
22006;DHT22;11167;46.988;15.470;2022-07-23T06:49:27;23.60;60.30
22006;DHT22;11167;46.988;15.470;2022-07-23T06:51:29;23.60;60.30
22006;DHT22;11167;46.988;15.470;2022-07-23T06:53:31;23.60;60.40
22006;DHT22;11167;46.988;15.470;2022-07-23T06:55:32;23.60;60.30
22006;DHT22;11167;46.988;15.470;2022-07-23T06:57:33;23.70;60.50
22006;DHT22;11167;46.988;15.470;2022-07-23T06:59:35;23.70;60.50
22006;DHT22;11167;46.988;15.470;2022-07-23T07:01:38;23.70;60.50
22006;DHT22;11167;46.988;15.470;2022-07-23T07:03:43;23.70;60.50
22006;DHT22;11167;46.988;15.470;2022-07-23T07:05:45;23.50;60.40
22006;DHT22;11167;46.988;15.470;2022-07-23T07:07:47;23.70;60.50
22006;DHT22;11167;46.988;15.470;2022-07-23T07:09:54;23.70;60.60
22006;DHT22;11167;46.988;15.470;2022-07-23T07:11:55;23.80;60.70
22006;DHT22;11167;46.988;15.470;2022-07-23T07:13:57;23.80;60.80
22006;DHT22;11167;46.988;15.470;2022-07-23T07:15:58;23.80;60.80
22006;DHT22;11167;46.988;15.470;2022-07-23T07:17:59;23.80;60.60
22006;DHT22;11167;46.988;15.470;2022-07-23T07:20:00;23.80;61.30
22006;DHT22;11167;46.988;15.470;2022-07-23T07:22:02;23.90;60.80
22006;DHT22;11167;46.988;15.470;2022-07-23T07:24:03;23.90;60.90
22006;DHT22;11167;46.988;15.470;2022-07-23T07:26:05;23.90;60.90
22006;DHT22;11167;46.988;15.470;2022-07-23T07:28:06;23.90;60.90
22006;DHT22;11167;46.988;15.470;2022-07-23T07:30:08;23.90;61.00
22006;DHT22;11167;46.988;15.470;2022-07-23T07:32:10;24.00;61.10
22006;DHT22;11167;46.988;15.470;2022-07-23T07:34:11;24.00;61.10
22006;DHT22;11167;46.988;15.470;2022-07-23T07:36:13;24.00;61.00
22006;DHT22;11167;46.988;15.470;2022-07-23T07:38:14;24.00;61.10
22006;DHT22;11167;46.988;15.470;2022-07-23T07:40:16;24.10;61.10
22006;DHT22;11167;46.988;15.470;2022-07-23T07:42:17;24.10;61.20
22006;DHT22;11167;46.988;15.470;2022-07-23T07:44:18;24.10;61.30
22006;DHT22;11167;46.988;15.470;2022-07-23T07:46:20;24.20;61.30
22006;DHT22;11167;46.988;15.470;2022-07-23T07:48:21;24.20;61.30
22006;DHT22;11167;46.988;15.470;2022-07-23T07:50:22;24.20;61.40
22006;DHT22;11167;46.988;15.470;2022-07-23T07:52:24;24.20;61.40
22006;DHT22;11167;46.988;15.470;2022-07-23T07:54:25;24.30;61.50
22006;DHT22;11167;46.988;15.470;2022-07-23T07:56:26;24.30;61.50
22006;DHT22;11167;46.988;15.470;2022-07-23T07:58:27;24.30;61.50
22006;DHT22;11167;46.988;15.470;2022-07-23T08:00:29;24.40;61.70
22006;DHT22;11167;46.988;15.470;2022-07-23T08:02:42;24.40;61.70
22006;DHT22;11167;46.988;15.470;2022-07-23T08:04:44;24.40;61.70
22006;DHT22;11167;46.988;15.470;2022-07-23T08:06:45;24.50;61.70
22006;DHT22;11167;46.988;15.470;2022-07-23T08:08:46;24.50;61.80
22006;DHT22;11167;46.988;15.470;2022-07-23T08:10:48;24.50;61.90
22006;DHT22;11167;46.988;15.470;2022-07-23T08:12:51;24.60;61.90
22006;DHT22;11167;46.988;15.470;2022-07-23T08:14:54;24.60;61.90
22006;DHT22;11167;46.988;15.470;2022-07-23T08:16:55;24.60;61.90
22006;DHT22;11167;46.988;15.470;2022-07-23T08:18:56;24.60;61.90
22006;DHT22;11167;46.988;15.470;2022-07-23T08:20:57;24.70;62.90
22006;DHT22;11167;46.988;15.470;2022-07-23T08:23:02;24.80;62.10
22006;DHT22;11167;46.988;15.470;2022-07-23T08:25:03;24.80;62.20
22006;DHT22;11167;46.988;15.470;2022-07-23T08:27:04;24.80;62.10
22006;DHT22;11167;46.988;15.470;2022-07-23T08:29:05;24.90;62.20
22006;DHT22;11167;46.988;15.470;2022-07-23T08:31:07;24.90;62.30
22006;DHT22;11167;46.988;15.470;2022-07-23T08:33:13;25.00;62.30
22006;DHT22;11167;46.988;15.470;2022-07-23T08:35:14;25.00;62.40
22006;DHT22;11167;46.988;15.470;2022-07-23T08:37:15;25.10;62.40
22006;DHT22;11167;46.988;15.470;2022-07-23T08:39:16;25.10;62.40
22006;DHT22;11167;46.988;15.470;2022-07-23T08:41:17;25.20;62.60
22006;DHT22;11167;46.988;15.470;2022-07-23T08:43:25;25.20;62.50
22006;DHT22;11167;46.988;15.470;2022-07-23T08:45:25;25.20;62.50
22006;DHT22;11167;46.988;15.470;2022-07-23T08:47:27;25.30;62.70
22006;DHT22;11167;46.988;15.470;2022-07-23T08:49:29;25.30;62.60
22006;DHT22;11167;46.988;15.470;2022-07-23T08:51:31;25.30;62.70
22006;DHT22;11167;46.988;15.470;2022-07-23T08:53:34;25.40;62.70
22006;DHT22;11167;46.988;15.470;2022-07-23T08:55:40;25.40;62.70
22006;DHT22;11167;46.988;15.470;2022-07-23T08:57:42;25.50;62.80
22006;DHT22;11167;46.988;15.470;2022-07-23T08:59:44;25.50;62.80
22006;DHT22;11167;46.988;15.470;2022-07-23T09:01:45;25.60;63.00
22006;DHT22;11167;46.988;15.470;2022-07-23T09:03:46;25.70;63.30
22006;DHT22;11167;46.988;15.470;2022-07-23T09:06:07;25.70;63.00
22006;DHT22;11167;46.988;15.470;2022-07-23T09:10:16;25.80;63.10
22006;DHT22;11167;46.988;15.470;2022-07-23T09:12:17;25.80;63.10
22006;DHT22;11167;46.988;15.470;2022-07-23T09:14:35;25.80;63.10
22006;DHT22;11167;46.988;15.470;2022-07-23T09:16:31;25.90;63.30
22006;DHT22;11167;46.988;15.470;2022-07-23T09:18:38;25.90;63.20
22006;DHT22;11167;46.988;15.470;2022-07-23T09:20:40;26.00;63.30
22006;DHT22;11167;46.988;15.470;2022-07-23T09:22:45;26.10;63.50
22006;DHT22;11167;46.988;15.470;2022-07-23T09:25:14;26.10;63.30
22006;DHT22;11167;46.988;15.470;2022-07-23T09:27:15;26.10;63.50
22006;DHT22;11167;46.988;15.470;2022-07-23T09:29:22;26.20;63.40
22006;DHT22;11167;46.988;15.470;2022-07-23T09:31:25;26.20;63.60
22006;DHT22;11167;46.988;15.470;2022-07-23T09:33:28;26.30;63.60
22006;DHT22;11167;46.988;15.470;2022-07-23T09:35:53;26.30;63.60
22006;DHT22;11167;46.988;15.470;2022-07-23T09:38:01;26.40;63.70
22006;DHT22;11167;46.988;15.470;2022-07-23T09:40:08;26.40;63.80
22006;DHT22;11167;46.988;15.470;2022-07-23T09:42:24;26.50;63.70
22006;DHT22;11167;46.988;15.470;2022-07-23T09:44:25;26.50;63.70
22006;DHT22;11167;46.988;15.470;2022-07-23T09:46:27;26.60;63.80
22006;DHT22;11167;46.988;15.470;2022-07-23T09:48:29;26.60;63.80
22006;DHT22;11167;46.988;15.470;2022-07-23T09:50:30;26.70;63.90
22006;DHT22;11167;46.988;15.470;2022-07-23T09:52:33;26.70;64.00
22006;DHT22;11167;46.988;15.470;2022-07-23T09:54:35;26.80;64.00
22006;DHT22;11167;46.988;15.470;2022-07-23T09:56:38;26.80;63.80
22006;DHT22;11167;46.988;15.470;2022-07-23T09:58:40;26.80;64.00
22006;DHT22;11167;46.988;15.470;2022-07-23T10:00:46;26.90;64.10
22006;DHT22;11167;46.988;15.470;2022-07-23T10:02:50;26.90;64.10
22006;DHT22;11167;46.988;15.470;2022-07-23T10:04:54;27.00;64.10
22006;DHT22;11167;46.988;15.470;2022-07-23T10:07:00;27.00;64.10
22006;DHT22;11167;46.988;15.470;2022-07-23T10:09:01;27.10;64.20
22006;DHT22;11167;46.988;15.470;2022-07-23T10:11:03;27.10;64.20
22006;DHT22;11167;46.988;15.470;2022-07-23T10:13:05;27.10;64.20
22006;DHT22;11167;46.988;15.470;2022-07-23T10:15:21;27.20;64.20
22006;DHT22;11167;46.988;15.470;2022-07-23T10:17:22;27.30;64.50
22006;DHT22;11167;46.988;15.470;2022-07-23T10:19:25;27.30;64.40
22006;DHT22;11167;46.988;15.470;2022-07-23T10:21:42;27.40;64.40
22006;DHT22;11167;46.988;15.470;2022-07-23T10:23:58;27.40;64.40
22006;DHT22;11167;46.988;15.470;2022-07-23T10:26:10;27.50;64.50
22006;DHT22;11167;46.988;15.470;2022-07-23T10:30:39;27.60;64.60
22006;DHT22;11167;46.988;15.470;2022-07-23T10:35:22;27.70;64.60
22006;DHT22;11167;46.988;15.470;2022-07-23T10:37:17;27.70;64.60
22006;DHT22;11167;46.988;15.470;2022-07-23T10:39:29;27.80;64.70
22006;DHT22;11167;46.988;15.470;2022-07-23T10:41:40;27.80;64.70
22006;DHT22;11167;46.988;15.470;2022-07-23T10:43:41;27.90;64.80
22006;DHT22;11167;46.988;15.470;2022-07-23T10:45:42;28.00;64.90
22006;DHT22;11167;46.988;15.470;2022-07-23T10:47:44;28.00;64.80
22006;DHT22;11167;46.988;15.470;2022-07-23T10:49:45;28.10;65.00
22006;DHT22;11167;46.988;15.470;2022-07-23T10:54:21;28.20;64.90
22006;DHT22;11167;46.988;15.470;2022-07-23T10:59:03;28.30;65.00
22006;DHT22;11167;46.988;15.470;2022-07-23T11:01:30;28.30;65.00
22006;DHT22;11167;46.988;15.470;2022-07-23T11:03:31;28.40;65.00
22006;DHT22;11167;46.988;15.470;2022-07-23T11:05:42;28.40;65.00
22006;DHT22;11167;46.988;15.470;2022-07-23T11:10:13;28.50;65.00
22006;DHT22;11167;46.988;15.470;2022-07-23T11:14:57;28.60;65.10
22006;DHT22;11167;46.988;15.470;2022-07-23T11:16:29;28.70;65.20
22006;DHT22;11167;46.988;15.470;2022-07-23T11:20:47;28.80;65.20
22006;DHT22;11167;46.988;15.470;2022-07-23T11:22:51;28.90;65.20
22006;DHT22;11167;46.988;15.470;2022-07-23T11:24:53;28.90;65.20
22006;DHT22;11167;46.988;15.470;2022-07-23T11:26:59;29.00;65.30
22006;DHT22;11167;46.988;15.470;2022-07-23T11:31:28;29.10;65.30
22006;DHT22;11167;46.988;15.470;2022-07-23T11:33:29;29.20;65.40
22006;DHT22;11167;46.988;15.470;2022-07-23T11:35:31;29.20;65.30
22006;DHT22;11167;46.988;15.470;2022-07-23T11:37:40;29.30;66.20
22006;DHT22;11167;46.988;15.470;2022-07-23T11:39:41;29.30;65.30
22006;DHT22;11167;46.988;15.470;2022-07-23T11:41:44;29.40;65.30
22006;DHT22;11167;46.988;15.470;2022-07-23T11:43:45;29.40;65.40
22006;DHT22;11167;46.988;15.470;2022-07-23T11:45:49;29.40;65.30
22006;DHT22;11167;46.988;15.470;2022-07-23T11:47:51;29.50;65.30
22006;DHT22;11167;46.988;15.470;2022-07-23T11:50:00;29.60;65.50
22006;DHT22;11167;46.988;15.470;2022-07-23T11:52:09;29.60;65.40
22006;DHT22;11167;46.988;15.470;2022-07-23T11:54:11;29.70;65.40
22006;DHT22;11167;46.988;15.470;2022-07-23T11:56:12;29.70;65.30
22006;DHT22;11167;46.988;15.470;2022-07-23T11:58:13;29.80;65.40
22006;DHT22;11167;46.988;15.470;2022-07-23T12:00:17;29.80;65.30
22006;DHT22;11167;46.988;15.470;2022-07-23T12:02:20;29.90;65.50
22006;DHT22;11167;46.988;15.470;2022-07-23T12:04:21;30.00;65.50
22006;DHT22;11167;46.988;15.470;2022-07-23T12:06:23;30.00;65.50
22006;DHT22;11167;46.988;15.470;2022-07-23T12:08:24;30.00;65.50
22006;DHT22;11167;46.988;15.470;2022-07-23T12:10:44;30.00;65.50
22006;DHT22;11167;46.988;15.470;2022-07-23T12:12:42;30.10;65.60
22006;DHT22;11167;46.988;15.470;2022-07-23T12:14:55;30.20;65.60
22006;DHT22;11167;46.988;15.470;2022-07-23T12:17:10;30.30;65.70
22006;DHT22;11167;46.988;15.470;2022-07-23T12:19:11;30.30;65.60
22006;DHT22;11167;46.988;15.470;2022-07-23T12:21:14;30.30;65.60
22006;DHT22;11167;46.988;15.470;2022-07-23T12:23:18;30.40;65.70
22006;DHT22;11167;46.988;15.470;2022-07-23T12:25:21;30.40;65.70
22006;DHT22;11167;46.988;15.470;2022-07-23T12:27:24;30.50;65.70
22006;DHT22;11167;46.988;15.470;2022-07-23T12:29:34;30.60;65.80
22006;DHT22;11167;46.988;15.470;2022-07-23T12:31:30;30.60;65.70
22006;DHT22;11167;46.988;15.470;2022-07-23T12:33:37;30.60;65.80
22006;DHT22;11167;46.988;15.470;2022-07-23T12:35:41;30.70;65.70
22006;DHT22;11167;46.988;15.470;2022-07-23T12:37:45;30.70;65.70
22006;DHT22;11167;46.988;15.470;2022-07-23T12:39:46;30.80;65.70
22006;DHT22;11167;46.988;15.470;2022-07-23T12:41:51;30.80;65.70
22006;DHT22;11167;46.988;15.470;2022-07-23T12:43:53;30.90;65.70
22006;DHT22;11167;46.988;15.470;2022-07-23T12:48:01;31.00;65.80
22006;DHT22;11167;46.988;15.470;2022-07-23T12:50:05;31.00;65.60
22006;DHT22;11167;46.988;15.470;2022-07-23T12:52:16;31.10;65.60
22006;DHT22;11167;46.988;15.470;2022-07-23T12:54:18;31.10;65.60
22006;DHT22;11167;46.988;15.470;2022-07-23T12:58:45;31.20;65.60
22006;DHT22;11167;46.988;15.470;2022-07-23T13:00:53;31.20;65.50
22006;DHT22;11167;46.988;15.470;2022-07-23T13:02:55;31.20;65.50
22006;DHT22;11167;46.988;15.470;2022-07-23T13:04:56;31.30;65.50
22006;DHT22;11167;46.988;15.470;2022-07-23T13:06:58;31.30;65.70
22006;DHT22;11167;46.988;15.470;2022-07-23T13:09:03;31.40;65.80